Time;durP1;ratioP1;P1;durP2;ratioP2;P2;SDS_P1;SDS_P2;PMS_P1;PMS_P2;Temp;Humidity;BMP_temperature;BMP_pressure;BME280_temperature;BME280_humidity;BME280_pressure;Samples;Min_cycle;Max_cycle;Signal;HPM_P1;HPM_P2
2022/02/23 00:00:09;;;;;;;3.83;2.43;;;;;;;3.99;100.00;97236.47;4930361;28;20285;-51
2022/02/23 00:02:38;;;;;;;3.37;2.43;;;;;;;4.03;100.00;97234.38;4942085;28;20269;-48
2022/02/23 00:05:07;;;;;;;4.00;2.50;;;;;;;4.12;100.00;97232.72;4946668;28;20231;-53
2022/02/23 00:07:36;;;;;;;4.57;2.37;;;;;;;4.02;100.00;97230.94;4904477;28;20970;-49
2022/02/23 00:10:04;;;;;;;3.17;2.40;;;;;;;3.96;100.00;97226.25;4930155;28;20317;-49
2022/02/23 00:12:34;;;;;;;5.47;2.07;;;;;;;3.95;100.00;97229.81;4938068;28;20397;-49
2022/02/23 00:15:03;;;;;;;3.83;2.43;;;;;;;4.08;100.00;97236.59;4940972;28;20237;-54
2022/02/23 00:17:31;;;;;;;3.77;2.13;;;;;;;4.16;100.00;97218.34;4961808;28;20214;-53
2022/02/23 00:19:59;;;;;;;3.23;2.00;;;;;;;3.95;100.00;97219.34;4966048;28;20642;-54
2022/02/23 00:22:29;;;;;;;2.60;2.30;;;;;;;4.01;100.00;97213.56;4929663;28;20380;-54
2022/02/23 00:24:57;;;;;;;2.10;1.80;;;;;;;3.98;100.00;97218.25;4950699;28;20292;-55
2022/02/23 00:27:26;;;;;;;2.77;2.00;;;;;;;4.12;100.00;97203.84;4951873;28;21227;-56
2022/02/23 00:29:55;;;;;;;4.40;2.20;;;;;;;4.07;100.00;97221.81;4953427;28;20206;-55
2022/02/23 00:32:24;;;;;;;2.30;2.10;;;;;;;4.23;100.00;97219.41;4960096;28;20214;-56
2022/02/23 00:34:52;;;;;;;2.93;2.03;;;;;;;4.32;100.00;97218.53;4961874;28;20246;-49
2022/02/23 00:37:20;;;;;;;2.53;2.17;;;;;;;4.27;100.00;97214.72;4930212;28;20281;-56
2022/02/23 00:39:48;;;;;;;2.43;2.10;;;;;;;4.47;100.00;97216.28;4951236;28;21458;-47
2022/02/23 00:42:17;;;;;;;3.00;2.17;;;;;;;4.37;100.00;97218.13;4967687;28;20241;-55
2022/02/23 00:44:45;;;;;;;3.90;2.27;;;;;;;4.41;100.00;97213.44;4940501;28;20250;-56
2022/02/23 00:47:15;;;;;;;2.60;1.67;;;;;;;4.45;100.00;97209.56;4968846;28;20210;-54
2022/02/23 00:49:43;;;;;;;3.23;2.40;;;;;;;4.45;100.00;97209.56;4966454;28;20244;-51
2022/02/23 00:52:11;;;;;;;3.77;1.90;;;;;;;4.46;100.00;97206.75;4969139;28;20210;-51
2022/02/23 00:54:39;;;;;;;1.83;1.70;;;;;;;4.33;100.00;97203.66;4931981;28;20225;-51
2022/02/23 00:57:08;;;;;;;2.40;1.60;;;;;;;4.49;100.00;97210.91;4953335;28;20825;-54
2022/02/23 00:59:36;;;;;;;2.53;2.00;;;;;;;4.56;100.00;97206.72;4936983;28;20987;-54
2022/02/23 01:02:05;;;;;;;5.03;2.03;;;;;;;4.56;100.00;97211.97;4967150;28;20301;-49
2022/02/23 01:04:35;;;;;;;1.60;1.50;;;;;;;4.47;100.00;97204.97;4964344;28;20969;-49
2022/02/23 01:07:04;;;;;;;2.23;1.80;;;;;;;4.55;100.00;97209.50;4967168;28;20758;-51
2022/02/23 01:09:32;;;;;;;2.17;1.60;;;;;;;4.62;100.00;97208.75;4929831;28;20217;-51
2022/02/23 01:12:00;;;;;;;3.40;1.73;;;;;;;4.67;100.00;97205.72;4950417;28;20210;-50
2022/02/23 01:14:29;;;;;;;1.77;1.63;;;;;;;4.74;100.00;97203.34;4946597;28;20964;-54
2022/02/23 01:16:58;;;;;;;2.53;2.23;;;;;;;4.63;100.00;97205.16;4954702;28;20852;-51
2022/02/23 01:19:26;;;;;;;1.83;1.43;;;;;;;4.68;100.00;97203.91;4965213;28;20233;-54
2022/02/23 01:21:56;;;;;;;1.70;1.60;;;;;;;4.75;100.00;97205.00;4969341;28;20261;-50
2022/02/23 01:24:24;;;;;;;1.70;1.60;;;;;;;4.84;100.00;97211.13;4928797;28;20257;-53
2022/02/23 01:26:52;;;;;;;2.30;1.53;;;;;;;4.85;100.00;97218.88;4962122;28;20223;-52
2022/02/23 01:29:20;;;;;;;3.10;1.47;;;;;;;4.79;100.00;97211.59;4942125;28;20210;-54
2022/02/23 01:31:49;;;;;;;1.87;1.77;;;;;;;4.83;100.00;97210.34;4952496;28;20241;-53
2022/02/23 01:34:17;;;;;;;2.43;1.53;;;;;;;4.87;100.00;97223.97;4963183;28;20222;-55
2022/02/23 01:36:45;;;;;;;2.00;1.90;;;;;;;4.98;100.00;97226.41;4963635;28;20214;-52
2022/02/23 01:39:15;;;;;;;1.33;1.30;;;;;;;5.09;100.00;97229.81;4951937;28;20213;-50
2022/02/23 01:41:44;;;;;;;1.97;1.83;;;;;;;5.11;100.00;97239.16;4948201;28;20910;-50
2022/02/23 01:44:12;;;;;;;3.40;1.70;;;;;;;5.19;100.00;97238.44;4925113;28;21135;-50
2022/02/23 01:46:40;;;;;;;1.93;1.80;;;;;;;5.12;100.00;97250.50;4926329;28;20592;-48
2022/02/23 01:49:08;;;;;;;1.83;1.73;;;;;;;5.21;100.00;97257.50;4964562;28;20237;-55
2022/02/23 01:51:36;;;;;;;1.60;1.30;;;;;;;5.16;100.00;97265.00;4964803;28;20208;-56
2022/02/23 01:54:05;;;;;;;1.13;1.13;;;;;;;4.99;100.00;97279.75;4968682;28;20233;-50
2022/02/23 01:56:35;;;;;;;1.00;1.00;;;;;;;4.85;100.00;97279.28;4933426;28;20201;-51
2022/02/23 01:59:03;;;;;;;2.27;1.47;;;;;;;4.78;100.00;97300.00;4947408;28;20217;-49
2022/02/23 02:01:31;;;;;;;1.00;1.00;;;;;;;4.66;100.00;97300.34;4947352;28;21498;-53
2022/02/23 02:03:59;;;;;;;1.47;1.47;;;;;;;4.49;100.00;97300.13;4968552;28;20230;-50
2022/02/23 02:06:27;;;;;;;1.50;1.40;;;;;;;4.39;100.00;97313.25;4962311;28;20232;-53
2022/02/23 02:08:55;;;;;;;1.37;1.30;;;;;;;4.24;100.00;97299.75;4964946;28;20220;-54
2022/02/23 02:11:23;;;;;;;2.87;2.03;;;;;;;4.12;100.00;97312.19;4927468;28;21041;-58
2022/02/23 02:13:52;;;;;;;2.60;2.50;;;;;;;4.10;100.00;97321.19;4964905;28;20795;-52
2022/02/23 02:16:20;;;;;;;2.27;1.90;;;;;;;4.02;100.00;97337.59;4944952;28;20218;-52
2022/02/23 02:18:48;;;;;;;4.07;2.40;;;;;;;4.03;100.00;97332.22;4948554;28;20236;-53
2022/02/23 02:21:16;;;;;;;2.30;2.20;;;;;;;4.11;100.00;97328.06;4971124;28;20213;-53
2022/02/23 02:23:46;;;;;;;1.80;1.67;;;;;;;4.01;100.00;97334.16;4972192;28;20321;-50
2022/02/23 02:26:16;;;;;;;1.80;1.70;;;;;;;3.96;100.00;97346.03;4929671;28;20226;-47
2022/02/23 02:28:44;;;;;;;1.43;1.30;;;;;;;4.00;100.00;97344.78;4961718;28;20209;-56
2022/02/23 02:31:12;;;;;;;1.63;1.50;;;;;;;3.94;100.00;97337.47;4950340;28;20209;-57
2022/02/23 02:33:40;;;;;;;2.20;2.10;;;;;;;4.06;100.00;97354.72;4947082;28;20941;-52
2022/02/23 02:36:08;;;;;;;2.97;2.70;;;;;;;4.10;100.00;97348.22;4965897;28;22435;-56
2022/02/23 02:38:36;;;;;;;3.10;2.87;;;;;;;4.11;100.00;97356.94;4969111;28;20214;-49
2022/02/23 02:41:05;;;;;;;3.50;3.30;;;;;;;4.14;100.00;97360.06;4967332;28;20692;-51
2022/02/23 02:43:33;;;;;;;3.00;2.80;;;;;;;4.18;100.00;97366.72;4932209;28;20237;-49
2022/02/23 02:46:01;;;;;;;3.40;3.10;;;;;;;4.14;100.00;97370.56;4949710;28;20233;-50
2022/02/23 02:48:29;;;;;;;4.00;3.70;;;;;;;4.27;100.00;97377.34;4943610;28;20204;-47
2022/02/23 02:50:57;;;;;;;4.83;3.93;;;;;;;4.16;100.00;97384.38;4964527;28;20213;-49
2022/02/23 02:53:25;;;;;;;4.10;3.70;;;;;;;4.07;100.00;97377.34;4964765;28;20206;-53
2022/02/23 02:55:53;;;;;;;3.17;2.97;;;;;;;3.97;100.00;97377.34;4968878;28;20206;-53
2022/02/23 02:58:23;;;;;;;3.77;3.47;;;;;;;3.99;100.00;97393.78;4924327;28;20900;-52
2022/02/23 03:00:50;;;;;;;2.97;2.83;;;;;;;4.11;100.00;97406.75;4949419;28;20222;-51
2022/02/23 03:03:19;;;;;;;3.07;2.97;;;;;;;3.97;100.00;97393.06;4963155;28;20214;-52
2022/02/23 03:05:47;;;;;;;3.83;3.57;;;;;;;3.98;100.00;97400.00;4945712;28;20209;-52
2022/02/23 03:08:16;;;;;;;3.50;3.20;;;;;;;3.83;100.00;97403.97;4965326;28;20205;-48
2022/02/23 03:10:44;;;;;;;3.90;3.47;;;;;;;3.97;100.00;97413.22;4963921;28;20202;-51
2022/02/23 03:13:12;;;;;;;3.20;3.00;;;;;;;3.88;100.00;97401.75;4926572;28;20213;-51
2022/02/23 03:15:41;;;;;;;3.13;2.93;;;;;;;3.96;100.00;97409.75;4945732;28;20244;-55
2022/02/23 03:18:09;;;;;;;4.00;3.20;;;;;;;3.71;100.00;97421.59;4965344;28;20214;-55
2022/02/23 03:20:37;;;;;;;5.27;4.13;;;;;;;3.81;100.00;97432.09;4947294;28;20227;-53
2022/02/23 03:23:05;;;;;;;5.17;3.83;;;;;;;3.80;100.00;97451.41;4967714;28;20206;-51
2022/02/23 03:25:33;;;;;;;3.97;3.37;;;;;;;3.75;100.00;97449.19;4964245;28;20225;-53
2022/02/23 03:28:01;;;;;;;3.57;3.27;;;;;;;3.67;100.00;97439.38;4967638;28;20414;-48
2022/02/23 03:30:30;;;;;;;3.03;2.77;;;;;;;3.72;100.00;97454.69;4929512;28;20360;-54
2022/02/23 03:32:59;;;;;;;4.00;3.60;;;;;;;3.75;100.00;97468.38;4949422;28;20210;-54
2022/02/23 03:35:28;;;;;;;5.10;4.40;;;;;;;3.66;100.00;97471.81;4964276;28;21153;-52
2022/02/23 03:37:56;;;;;;;3.37;3.10;;;;;;;3.70;100.00;97473.19;4949286;28;20209;-52
2022/02/23 03:40:25;;;;;;;2.60;2.50;;;;;;;3.74;100.00;97489.47;4965663;28;20198;-49
2022/02/23 03:42:54;;;;;;;4.10;3.03;;;;;;;3.70;100.00;97495.94;4964982;28;20210;-55
2022/02/23 03:45:22;;;;;;;2.03;1.60;;;;;;;3.66;100.00;97505.03;4924517;28;20237;-55
2022/02/23 03:47:51;;;;;;;1.70;1.60;;;;;;;3.69;100.00;97505.59;4948664;28;20236;-49
2022/02/23 03:50:20;;;;;;;2.87;1.70;;;;;;;3.72;100.00;97520.22;4961858;28;20213;-55
2022/02/23 03:52:48;;;;;;;1.57;1.23;;;;;;;3.60;100.00;97519.50;4948963;28;20206;-53
2022/02/23 03:55:17;;;;;;;2.50;2.00;;;;;;;3.61;100.00;97531.63;4965947;28;20240;-52
2022/02/23 03:57:45;;;;;;;1.47;1.33;;;;;;;3.51;100.00;97541.22;4964591;28;20201;-55
2022/02/23 04:00:14;;;;;;;1.83;1.67;;;;;;;3.42;100.00;97548.09;4931714;28;20691;-52
2022/02/23 04:02:44;;;;;;;3.63;1.43;;;;;;;3.47;100.00;97551.97;4946053;28;20210;-52
2022/02/23 04:05:12;;;;;;;1.97;1.80;;;;;;;3.33;100.00;97555.75;4963481;28;20232;-52
2022/02/23 04:07:45;;;;;;;3.73;3.43;;;;;;;3.43;100.00;97549.75;4945595;28;20229;-52
2022/02/23 04:10:14;;;;;;;3.83;3.23;;;;;;;3.37;100.00;97560.72;4963406;28;20216;-51
2022/02/23 04:12:46;;;;;;;4.13;3.83;;;;;;;3.33;100.00;97573.25;4971003;28;20210;-49
2022/02/23 04:15:14;;;;;;;4.23;3.93;;;;;;;3.30;100.00;97578.75;4932706;28;20241;-52
2022/02/23 04:17:42;;;;;;;3.50;3.20;;;;;;;3.31;100.00;97586.47;4950907;28;20206;-56
2022/02/23 04:20:10;;;;;;;4.07;2.73;;;;;;;3.13;100.00;97585.41;4941093;28;20220;-50
2022/02/23 04:22:39;;;;;;;3.03;2.77;;;;;;;3.00;100.00;97593.44;4968945;28;20221;-53
2022/02/23 04:25:09;;;;;;;2.47;2.30;;;;;;;3.00;100.00;97596.06;4950757;28;20230;-53
2022/02/23 04:27:38;;;;;;;3.67;3.37;;;;;;;3.01;100.00;97600.31;4969890;28;20354;-52
2022/02/23 04:30:08;;;;;;;3.07;2.70;;;;;;;3.10;100.00;97604.81;4939669;28;20201;-54
2022/02/23 04:32:37;;;;;;;3.40;2.63;;;;;;;3.13;100.00;97617.63;4963122;28;20730;-47
2022/02/23 04:35:06;;;;;;;2.47;2.17;;;;;;;3.10;100.00;97617.91;4941693;28;20235;-52
2022/02/23 04:37:34;;;;;;;3.80;2.50;;;;;;;3.10;100.00;97636.22;4966226;28;20600;-47
2022/02/23 04:40:02;;;;;;;4.33;2.37;;;;;;;3.10;100.00;97649.31;4943756;28;20210;-51
2022/02/23 04:42:31;;;;;;;2.17;1.97;;;;;;;3.04;100.00;97649.81;4964988;28;20285;-49
2022/02/23 04:45:01;;;;;;;4.50;2.90;;;;;;;2.97;100.00;97656.50;4948413;28;20616;-50
2022/02/23 04:47:30;;;;;;;2.40;2.20;;;;;;;2.92;100.00;97661.28;4950497;28;20285;-50
2022/02/23 04:49:58;;;;;;;3.37;2.10;;;;;;;2.81;100.00;97670.81;4945351;28;20213;-54
2022/02/23 04:52:26;;;;;;;6.27;1.90;;;;;;;3.08;100.00;97666.13;4961229;28;20206;-50
2022/02/23 04:54:57;;;;;;;2.00;1.90;;;;;;;3.11;100.00;97663.25;4952901;28;20272;-49
2022/02/23 04:57:25;;;;;;;2.23;1.57;;;;;;;3.14;100.00;97663.81;4967731;28;20198;-49
2022/02/23 04:59:55;;;;;;;4.50;2.10;;;;;;;3.06;100.00;97660.19;4967386;28;20202;-52
2022/02/23 05:02:24;;;;;;;3.13;1.40;;;;;;;2.80;100.00;97668.34;4950143;28;20217;-52
2022/02/23 05:04:53;;;;;;;1.70;1.60;;;;;;;2.69;100.00;97669.19;4950104;28;20237;-50
2022/02/23 05:07:24;;;;;;;5.03;1.83;;;;;;;2.51;100.00;97666.25;4948586;28;20226;-51
2022/02/23 05:09:52;;;;;;;2.73;1.60;;;;;;;2.49;100.00;97671.63;4924262;28;20210;-53
2022/02/23 05:12:20;;;;;;;3.17;1.90;;;;;;;2.48;100.00;97667.34;4970487;28;20209;-50
2022/02/23 05:14:48;;;;;;;3.00;1.73;;;;;;;2.32;100.00;97680.78;4917704;28;20252;-48
2022/02/23 05:17:17;;;;;;;4.57;1.53;;;;;;;2.09;100.00;97687.78;4926819;28;20213;-48
2022/02/23 05:19:46;;;;;;;1.87;1.70;;;;;;;1.84;100.00;97687.03;4948663;28;20209;-51
2022/02/23 05:22:14;;;;;;;5.43;1.50;;;;;;;1.78;100.00;97700.56;4944373;28;20209;-48
2022/02/23 05:24:42;;;;;;;4.53;2.10;;;;;;;1.56;100.00;97695.19;4968935;28;20241;-48
2022/02/23 05:27:10;;;;;;;2.83;2.07;;;;;;;1.30;100.00;97699.69;4952909;28;20225;-47
2022/02/23 05:29:38;;;;;;;4.47;2.00;;;;;;;1.30;100.00;97705.75;4966185;28;20674;-52
2022/02/23 05:32:09;;;;;;;3.23;1.67;;;;;;;1.44;100.00;97712.59;4934946;28;20210;-54
2022/02/23 05:34:38;;;;;;;4.03;1.97;;;;;;;1.48;100.00;97709.75;4961137;28;20253;-51
2022/02/23 05:37:07;;;;;;;2.53;1.90;;;;;;;1.58;100.00;97710.72;4924593;28;20265;-52
2022/02/23 05:39:35;;;;;;;2.37;2.17;;;;;;;1.48;100.00;97723.63;4970966;28;20841;-53
2022/02/23 05:42:04;;;;;;;3.63;1.93;;;;;;;1.24;100.00;97715.81;4947357;28;20217;-51
2022/02/23 05:44:32;;;;;;;1.90;1.80;;;;;;;1.14;100.00;97726.13;4966421;28;20741;-49
2022/02/23 05:47:00;;;;;;;3.13;2.20;;;;;;;0.89;100.00;97732.22;4951298;28;20214;-55
2022/02/23 05:49:29;;;;;;;3.13;1.63;;;;;;;0.99;100.00;97748.94;4955598;28;20347;-52
2022/02/23 05:51:58;;;;;;;2.60;1.90;;;;;;;1.04;100.00;97751.19;4937863;28;20218;-54
2022/02/23 05:54:26;;;;;;;2.83;2.23;;;;;;;1.14;100.00;97754.81;4964063;28;20222;-52
2022/02/23 05:56:55;;;;;;;1.93;1.73;;;;;;;1.05;100.00;97766.75;4965776;28;20210;-49
2022/02/23 05:59:23;;;;;;;2.83;2.20;;;;;;;1.04;100.00;97770.31;4953133;28;20443;-48
2022/02/23 06:01:51;;;;;;;3.83;2.03;;;;;;;0.98;100.00;97779.38;4970040;28;20602;-49
2022/02/23 06:04:19;;;;;;;2.60;1.80;;;;;;;0.72;100.00;97771.63;4924032;28;20348;-48
2022/02/23 06:06:47;;;;;;;2.40;1.80;;;;;;;0.84;100.00;97793.41;4951548;28;20307;-47
2022/02/23 06:09:17;;;;;;;3.43;2.87;;;;;;;0.64;100.00;97807.84;4953678;28;21658;-52
2022/02/23 06:11:45;;;;;;;1.90;1.80;;;;;;;0.54;100.00;97806.81;4964805;28;20251;-51
2022/02/23 06:14:13;;;;;;;2.63;2.40;;;;;;;0.69;100.00;97810.97;4954232;28;20849;-52
2022/02/23 06:16:41;;;;;;;3.93;2.20;;;;;;;0.54;100.00;97818.06;4966596;28;20210;-52
2022/02/23 06:19:14;;;;;;;2.60;2.40;;;;;;;0.66;100.00;97826.00;4922059;28;21675;-50
2022/02/23 06:21:42;;;;;;;1.93;1.83;;;;;;;0.69;100.00;97831.81;4949937;28;20225;-49
2022/02/23 06:24:10;;;;;;;2.00;1.90;;;;;;;0.73;100.00;97832.47;4958243;28;20221;-55
2022/02/23 06:26:40;;;;;;;3.30;1.93;;;;;;;0.94;100.00;97837.09;4953023;28;20242;-53
2022/02/23 06:29:08;;;;;;;4.47;2.63;;;;;;;0.86;100.00;97853.31;4941325;28;20613;-49
2022/02/23 06:31:36;;;;;;;2.10;2.00;;;;;;;0.89;100.00;97857.47;4967087;28;20760;-51
2022/02/23 06:34:04;;;;;;;4.80;1.90;;;;;;;1.00;100.00;97854.97;4920305;28;20225;-51
2022/02/23 06:36:32;;;;;;;1.97;1.80;;;;;;;0.92;100.00;97858.09;4959323;28;20690;-48
2022/02/23 06:39:01;;;;;;;5.83;2.70;;;;;;;0.95;100.00;97875.34;4950221;28;20696;-47
2022/02/23 06:41:29;;;;;;;2.17;2.07;;;;;;;1.10;100.00;97884.69;4953407;28;20207;-49
2022/02/23 06:43:59;;;;;;;2.50;2.13;;;;;;;1.08;100.00;97889.19;4953230;28;20332;-48
2022/02/23 06:46:27;;;;;;;5.67;3.77;;;;;;;1.01;100.00;97886.16;4967706;28;20437;-52
2022/02/23 06:48:56;;;;;;;4.17;3.20;;;;;;;0.99;100.00;97895.88;4956138;28;20249;-47
2022/02/23 06:51:27;;;;;;;2.90;2.70;;;;;;;0.98;100.00;97899.44;4948853;28;20248;-52
2022/02/23 06:53:55;;;;;;;7.27;2.50;;;;;;;1.08;100.00;97904.84;4951736;28;20637;-51
2022/02/23 06:56:23;;;;;;;3.10;2.70;;;;;;;1.44;100.00;97911.06;4949079;28;20663;-49
2022/02/23 06:58:51;;;;;;;4.17;3.20;;;;;;;1.54;100.00;97915.63;4952291;28;20224;-48
2022/02/23 07:01:21;;;;;;;5.37;2.67;;;;;;;1.51;100.00;97921.06;4963203;28;20292;-50
2022/02/23 07:03:50;;;;;;;9.13;3.33;;;;;;;1.66;100.00;97925.19;4960388;28;20316;-49
2022/02/23 07:06:18;;;;;;;5.13;3.10;;;;;;;1.83;100.00;97931.00;4919211;28;20641;-47
2022/02/23 07:08:48;;;;;;;3.67;2.30;;;;;;;2.09;100.00;97925.69;4947483;28;20857;-50
2022/02/23 07:11:17;;;;;;;5.43;3.03;;;;;;;2.25;100.00;97920.97;4958110;28;20209;-47
2022/02/23 07:13:45;;;;;;;5.47;3.07;;;;;;;2.31;100.00;97925.75;4934683;28;20832;-51
2022/02/23 07:16:15;;;;;;;5.10;3.10;;;;;;;2.44;100.00;97925.69;4959986;28;20320;-51
2022/02/23 07:18:45;;;;;;;3.20;2.90;;;;;;;2.41;100.00;97931.16;4964881;28;20230;-50
2022/02/23 07:21:13;;;;;;;5.27;2.90;;;;;;;2.35;100.00;97936.84;4922011;28;20765;-50
2022/02/23 07:23:41;;;;;;;4.13;3.50;;;;;;;2.63;100.00;97944.41;4951699;28;20324;-52
2022/02/23 07:26:09;;;;;;;15.87;10.13;;;;;;;2.68;100.00;97944.88;4963262;28;20209;-50
2022/02/23 07:28:37;;;;;;;7.80;6.33;;;;;;;2.76;100.00;97945.13;4948707;28;20258;-49
2022/02/23 07:31:09;;;;;;;9.97;4.70;;;;;;;3.05;100.00;97949.94;4944887;28;20701;-50
2022/02/23 07:33:39;;;;;;;4.57;2.97;;;;;;;3.35;100.00;97959.03;4961346;28;20613;-51
2022/02/23 07:36:10;;;;;;;10.10;4.13;;;;;;;3.70;100.00;97962.44;4938126;28;20769;-52
2022/02/23 07:38:41;;;;;;;7.53;3.80;;;;;;;4.10;100.00;97977.63;4953034;28;20322;-54
2022/02/23 07:41:11;;;;;;;2.90;2.37;;;;;;;4.30;100.00;97975.19;4963410;28;20201;-56
2022/02/23 07:43:59;;;;;;;6.17;3.23;;;;;;;4.39;100.00;97963.13;4953763;28;20238;-53
2022/02/23 07:46:29;;;;;;;3.97;3.27;;;;;;;4.48;100.00;97985.97;4945573;28;20590;-45
2022/02/23 07:49:00;;;;;;;6.20;3.17;;;;;;;4.34;100.00;97994.97;4962224;28;20225;-50
2022/02/23 07:51:31;;;;;;;8.30;3.90;;;;;;;4.66;100.00;97998.53;4969229;28;20703;-48
2022/02/23 07:53:59;;;;;;;7.83;3.27;;;;;;;4.99;100.00;98001.97;4905317;28;20240;-46
2022/02/23 07:56:27;;;;;;;7.43;3.30;;;;;;;4.99;100.00;98004.59;4965322;28;20579;-50
2022/02/23 07:58:55;;;;;;;7.07;3.30;;;;;;;5.10;100.00;98012.38;4956244;28;20202;-48
2022/02/23 08:01:34;;;;;;;6.43;2.90;;;;;;;5.37;100.00;98011.03;4949662;28;20218;-49
2022/02/23 08:04:02;;;;;;;5.20;3.10;;;;;;;5.24;100.00;98019.13;4961860;28;20256;-50
2022/02/23 08:06:32;;;;;;;9.60;3.53;;;;;;;5.07;100.00;98021.38;4965315;28;20582;-54
2022/02/23 08:09:02;;;;;;;3.83;3.00;;;;;;;5.33;100.00;98025.41;4922770;28;20241;-50
2022/02/23 08:11:33;;;;;;;6.43;3.63;;;;;;;5.27;100.00;98032.00;4961292;28;20214;-51
2022/02/23 08:14:03;;;;;;;4.93;3.10;;;;;;;5.39;100.00;98030.13;4957376;28;20241;-49
2022/02/23 08:19:34;;;;;;;4.43;3.20;;;;;;;5.50;100.00;98030.06;4956657;28;20210;-50
2022/02/23 08:22:06;;;;;;;4.77;3.37;;;;;;;5.69;100.00;98044.25;4961609;28;20610;-47
2022/02/23 08:24:36;;;;;;;5.03;3.50;;;;;;;5.27;100.00;98045.13;4926177;28;20236;-50
2022/02/23 08:27:06;;;;;;;5.47;3.33;;;;;;;5.59;100.00;98038.13;4957543;28;20203;-51
2022/02/23 08:29:34;;;;;;;7.07;2.77;;;;;;;5.44;100.00;98040.25;4951657;28;20272;-49
2022/02/23 08:32:05;;;;;;;3.13;2.80;;;;;;;5.52;100.00;98040.44;4941798;28;21212;-50
2022/02/23 08:34:33;;;;;;;3.20;2.43;;;;;;;5.69;100.00;98038.19;4959955;28;20237;-47
2022/02/23 08:37:01;;;;;;;3.20;2.60;;;;;;;5.78;100.00;98037.38;4960702;28;20210;-50
2022/02/23 08:39:32;;;;;;;5.27;3.33;;;;;;;5.93;100.00;98051.81;4963605;28;20285;-46
2022/02/23 08:42:01;;;;;;;5.50;3.40;;;;;;;5.99;100.00;98050.47;4918850;28;20218;-49
2022/02/23 08:44:29;;;;;;;4.67;3.00;;;;;;;5.91;100.00;98048.50;4962745;28;20237;-51
2022/02/23 08:46:57;;;;;;;5.70;3.30;;;;;;;5.97;100.00;98060.28;4946411;28;20221;-49
2022/02/23 08:49:25;;;;;;;4.30;2.90;;;;;;;5.83;100.00;98055.38;4950979;28;20620;-50
2022/02/23 08:51:54;;;;;;;5.87;3.27;;;;;;;5.79;100.00;98049.56;4959453;28;20206;-48
2022/02/23 08:54:22;;;;;;;4.57;3.37;;;;;;;5.61;100.00;98054.59;4961868;28;20230;-47
2022/02/23 08:56:51;;;;;;;5.87;3.80;;;;;;;5.58;100.00;98063.56;4921053;28;20607;-49
2022/02/23 08:59:19;;;;;;;4.37;2.80;;;;;;;5.69;100.00;98065.28;4963318;28;20455;-52
2022/02/23 09:01:48;;;;;;;6.70;3.13;;;;;;;5.71;100.00;98073.88;4956079;28;20220;-52
2022/02/23 09:04:16;;;;;;;6.07;3.60;;;;;;;5.82;100.00;98070.34;4951605;28;20331;-50
2022/02/23 09:06:44;;;;;;;6.50;4.70;;;;;;;6.01;100.00;98082.75;4969758;28;20272;-51
2022/02/23 09:09:13;;;;;;;5.37;3.30;;;;;;;6.07;100.00;98079.59;4964103;28;20253;-53
2022/02/23 09:11:43;;;;;;;7.57;3.90;;;;;;;5.88;100.00;98077.69;4931824;28;20216;-49
2022/02/23 09:14:13;;;;;;;6.47;3.43;;;;;;;5.96;100.00;98070.94;4962427;28;20566;-51
2022/02/23 09:16:41;;;;;;;7.17;3.00;;;;;;;5.97;100.00;98083.97;4954760;28;20392;-47
2022/02/23 09:19:09;;;;;;;7.17;2.83;;;;;;;5.84;100.00;98075.44;4949679;28;20315;-47
2022/02/23 09:21:38;;;;;;;5.63;2.60;;;;;;;5.75;100.00;98080.53;4967920;28;20629;-50
2022/02/23 09:24:06;;;;;;;7.70;3.20;;;;;;;5.85;100.00;98091.09;4964620;28;20677;-46
2022/02/23 09:26:35;;;;;;;11.33;3.67;;;;;;;5.94;100.00;98082.41;4969474;28;20217;-52
2022/02/23 09:29:06;;;;;;;4.30;2.93;;;;;;;6.30;100.00;98092.56;4921282;28;20428;-54
2022/02/23 09:31:37;;;;;;;3.07;2.70;;;;;;;6.33;100.00;98081.75;4955471;28;20558;-50
2022/02/23 09:34:07;;;;;;;4.27;2.63;;;;;;;7.01;100.00;98088.06;4963198;28;20665;-49
2022/02/23 09:36:38;;;;;;;4.73;2.77;;;;;;;7.39;100.00;98086.38;4952172;28;20435;-48
2022/02/23 09:39:09;;;;;;;4.30;3.23;;;;;;;7.21;100.00;98093.34;4959739;28;20830;-52
2022/02/23 09:41:38;;;;;;;6.13;3.10;;;;;;;7.34;100.00;98103.56;4968906;28;20210;-53
2022/02/23 09:44:09;;;;;;;3.73;2.70;;;;;;;7.35;100.00;98097.31;4918892;28;20267;-54
2022/02/23 09:46:38;;;;;;;7.83;3.37;;;;;;;6.98;100.00;98096.25;4965840;28;20482;-48
2022/02/23 09:49:09;;;;;;;6.83;2.73;;;;;;;6.73;100.00;98102.91;4949065;28;20457;-47
2022/02/23 09:51:37;;;;;;;5.53;2.43;;;;;;;7.08;100.00;98102.34;4951761;28;20213;-51
2022/02/23 09:54:05;;;;;;;3.30;2.60;;;;;;;7.49;100.00;98093.41;4965266;28;20630;-51
2022/02/23 09:56:33;;;;;;;5.73;2.97;;;;;;;7.67;100.00;98093.53;4968060;28;20202;-50
2022/02/23 09:59:02;;;;;;;4.07;2.90;;;;;;;7.37;100.00;98111.19;4919637;28;20301;-51
2022/02/23 10:01:32;;;;;;;4.33;2.50;;;;;;;6.93;100.00;98104.56;4964670;28;20822;-48
2022/02/23 10:04:02;;;;;;;3.47;2.57;;;;;;;7.18;100.00;98109.41;4949736;28;20226;-50
2022/02/23 10:06:31;;;;;;;7.00;3.20;;;;;;;6.97;100.00;98110.41;4950172;28;20213;-51
2022/02/23 10:09:01;;;;;;;5.77;2.97;;;;;;;6.34;100.00;98101.00;4962550;28;20292;-49
2022/02/23 10:11:30;;;;;;;3.83;2.90;;;;;;;6.43;100.00;98096.75;4965833;28;20284;-51
2022/02/23 10:14:01;;;;;;;6.47;2.90;;;;;;;7.11;100.00;98098.63;4930100;28;20733;-53
2022/02/23 10:16:33;;;;;;;2.70;2.40;;;;;;;7.47;100.00;98090.09;4943797;28;20224;-51
2022/02/23 10:19:11;;;;;;;5.87;2.90;;;;;;;7.23;100.00;98104.56;4949448;28;20585;-54
2022/02/23 10:21:52;;;;;;;3.67;1.87;;;;;;;7.27;100.00;98108.59;4942660;28;23225;-52
2022/02/23 10:24:29;;;;;;;4.50;2.03;;;;;;;7.08;100.00;98101.53;4963932;28;20721;-48
2022/02/23 10:27:01;;;;;;;3.83;2.33;;;;;;;6.97;100.00;98104.28;4964814;28;20201;-50
2022/02/23 10:29:32;;;;;;;3.77;2.33;;;;;;;6.90;100.00;98098.75;4926884;28;20846;-48
2022/02/23 10:32:01;;;;;;;4.50;3.27;;;;;;;6.64;100.00;98108.03;4966386;28;20210;-49
2022/02/23 10:34:32;;;;;;;2.83;2.63;;;;;;;6.66;100.00;98097.34;4947917;28;20541;-45
2022/02/23 10:37:06;;;;;;;7.07;2.30;;;;;;;6.50;100.00;98109.22;4952915;28;20225;-49
2022/02/23 10:39:40;;;;;;;5.90;2.10;;;;;;;6.58;100.00;98103.28;4952497;28;20376;-47
2022/02/23 10:42:09;;;;;;;4.13;2.87;;;;;;;6.56;100.00;98099.94;4967323;28;20213;-49
2022/02/23 10:44:40;;;;;;;5.17;2.50;;;;;;;6.44;100.00;98101.88;4920417;28;25477;-52
2022/02/23 10:47:14;;;;;;;2.83;2.23;;;;;;;6.31;100.00;98102.13;4964485;28;20216;-48
2022/02/23 10:49:59;;;;;;;4.43;2.60;;;;;;;6.62;100.00;98098.56;4949835;28;20210;-49
2022/02/23 10:52:29;;;;;;;4.53;2.00;;;;;;;6.58;100.00;98098.00;4933894;28;20299;-54
2022/02/23 10:55:19;;;;;;;4.73;2.83;;;;;;;6.81;100.00;98093.31;4966549;28;20287;-53
2022/02/23 10:57:48;;;;;;;7.57;2.73;;;;;;;7.07;100.00;98098.03;4969892;28;20225;-50
2022/02/23 11:00:19;;;;;;;4.67;2.40;;;;;;;7.01;100.00;98092.50;4940816;28;20251;-54
2022/02/23 11:02:47;;;;;;;6.10;2.47;;;;;;;7.23;100.00;98102.75;4964723;28;20336;-55
2022/02/23 11:05:23;;;;;;;5.20;2.40;;;;;;;7.19;100.00;98090.00;4957225;28;20242;-51
2022/02/23 11:07:52;;;;;;;4.20;2.00;;;;;;;7.49;100.00;98081.09;4953516;28;20297;-53
2022/02/23 11:10:21;;;;;;;2.07;1.87;;;;;;;7.26;100.00;98088.47;4950007;28;20237;-50
2022/02/23 11:12:50;;;;;;;5.40;2.43;;;;;;;7.23;100.00;98094.03;4971287;28;20207;-53
2022/02/23 11:15:20;;;;;;;2.87;1.97;;;;;;;7.39;100.00;98096.91;4935696;28;20242;-50
2022/02/23 11:17:50;;;;;;;9.37;2.60;;;;;;;7.80;100.00;98091.41;4962830;28;20212;-53
2022/02/23 11:20:21;;;;;;;3.00;2.47;;;;;;;7.42;100.00;98073.88;4950711;28;20214;-50
2022/02/23 11:22:53;;;;;;;4.60;2.63;;;;;;;7.67;100.00;98083.81;4948262;28;20224;-48
2022/02/23 11:25:22;;;;;;;2.67;2.07;;;;;;;7.74;100.00;98088.50;4946507;28;20248;-50
2022/02/23 11:27:53;;;;;;;5.70;2.03;;;;;;;7.91;100.00;98090.38;4965580;28;20214;-49
2022/02/23 11:30:21;;;;;;;3.10;2.87;;;;;;;7.76;100.00;98084.75;4961164;28;20210;-52
2022/02/23 11:32:50;;;;;;;6.70;2.90;;;;;;;8.03;100.00;98077.84;4924803;28;20217;-47
2022/02/23 11:35:40;;;;;;;6.37;2.43;;;;;;;8.37;100.00;98076.44;4952400;28;20798;-51
2022/02/23 11:38:09;;;;;;;2.90;1.90;;;;;;;8.40;100.00;98073.50;4952792;28;20214;-47
2022/02/23 11:40:48;;;;;;;5.83;2.17;;;;;;;8.25;100.00;98066.06;4941735;28;20210;-50
2022/02/23 11:43:27;;;;;;;2.27;1.70;;;;;;;8.04;100.00;98068.94;4961444;28;20681;-51
2022/02/23 11:45:56;;;;;;;5.63;2.57;;;;;;;7.97;100.00;98066.09;4962822;28;20240;-52